createdAt,value
2023-07-08T00:02:15.122Z,5.43
2023-07-08T00:04:43.668Z,5.30
2023-07-08T00:07:16.978Z,5.40
2023-07-08T00:09:43.964Z,5.45
2023-07-08T00:12:12.711Z,5.55
2023-07-08T00:14:39.886Z,5.43
2023-07-08T00:17:13.348Z,5.50
2023-07-08T00:19:40.534Z,5.80
2023-07-08T00:22:15.394Z,5.57
2023-07-08T00:24:45.708Z,5.30
2023-07-08T00:27:14.585Z,4.65
2023-07-08T00:29:41.632Z,5.43
2023-07-08T00:32:16.128Z,5.18
2023-07-08T00:34:43.486Z,4.85
2023-07-08T00:37:13.564Z,4.53
2023-07-08T00:39:41.686Z,4.63
2023-07-08T00:42:26.187Z,4.80
2023-07-08T00:44:53.773Z,3.97
2023-07-08T00:47:21.593Z,4.53
2023-07-08T00:49:59.332Z,4.50
2023-07-08T00:52:28.786Z,5.03
2023-07-08T00:55:00.048Z,3.97
2023-07-08T00:57:32.590Z,3.58
2023-07-08T01:00:16.565Z,5.03
2023-07-08T01:02:51.464Z,3.97
2023-07-08T01:05:23.691Z,4.03
2023-07-08T01:07:58.873Z,4.05
2023-07-08T01:10:35.353Z,4.30
2023-07-08T01:13:08.777Z,3.90
2023-07-08T01:15:44.741Z,3.85
2023-07-08T01:18:17.642Z,3.85
2023-07-08T01:20:48.400Z,4.53
2023-07-08T01:23:15.615Z,4.18
2023-07-08T01:25:43.916Z,4.43
2023-07-08T01:28:11.527Z,4.32
2023-07-08T01:30:39.012Z,3.60
2023-07-08T01:33:17.658Z,4.03
2023-07-08T01:35:46.885Z,3.58
2023-07-08T01:38:17.457Z,4.07
2023-07-08T01:40:56.614Z,4.10
2023-07-08T01:43:23.861Z,3.40
2023-07-08T01:45:53.264Z,3.20
2023-07-08T01:48:23.599Z,3.50
2023-07-08T01:50:58.887Z,3.70
2023-07-08T01:53:41.350Z,3.70
2023-07-08T01:56:11.074Z,3.78
2023-07-08T01:58:38.380Z,3.80
2023-07-08T02:01:06.582Z,3.53
2023-07-08T02:03:33.799Z,3.88
2023-07-08T02:06:01.264Z,3.60
2023-07-08T02:08:28.624Z,3.50
2023-07-08T02:10:59.343Z,4.30
2023-07-08T02:13:27.265Z,3.47
2023-07-08T02:15:54.679Z,3.60
2023-07-08T02:18:21.959Z,3.60
2023-07-08T02:20:49.152Z,3.88
2023-07-08T02:23:16.831Z,4.28
2023-07-08T02:25:52.846Z,4.20
2023-07-08T02:28:20.206Z,4.32
2023-07-08T02:30:47.471Z,3.92
2023-07-08T02:33:18.807Z,3.70
2023-07-08T02:35:46.700Z,3.90
2023-07-08T02:38:14.535Z,3.65
2023-07-08T02:40:42.924Z,4.32
2023-07-08T02:43:10.049Z,3.92
2023-07-08T02:45:37.790Z,3.72
2023-07-08T02:48:05.041Z,3.83
2023-07-08T02:50:33.018Z,4.38
2023-07-08T02:53:00.218Z,3.40
2023-07-08T02:55:27.183Z,4.30
2023-07-08T02:57:54.336Z,4.20
2023-07-08T03:00:21.304Z,3.65
2023-07-08T03:02:48.476Z,3.88
2023-07-08T03:05:15.755Z,3.85
2023-07-08T03:07:42.827Z,4.18
2023-07-08T03:10:10.559Z,3.97
2023-07-08T03:12:37.505Z,4.15
2023-07-08T03:15:06.578Z,4.35
2023-07-08T03:17:34.039Z,4.55
2023-07-08T03:20:01.247Z,4.35
2023-07-08T03:22:28.320Z,4.18
2023-07-08T03:24:55.268Z,4.38
2023-07-08T03:27:22.975Z,3.95
2023-07-08T03:29:51.335Z,4.15
2023-07-08T03:32:18.381Z,4.05
2023-07-08T03:34:45.582Z,4.25
2023-07-08T03:37:13.841Z,4.40
2023-07-08T03:39:40.860Z,3.90
2023-07-08T03:42:07.982Z,4.10
2023-07-08T03:44:35.159Z,4.22
2023-07-08T03:47:02.313Z,3.60
2023-07-08T03:49:29.846Z,5.00
2023-07-08T03:51:57.344Z,4.68
2023-07-08T03:54:25.923Z,4.30
2023-07-08T03:56:56.553Z,4.18
2023-07-08T03:59:25.690Z,4.10
2023-07-08T04:01:54.263Z,3.75
2023-07-08T04:04:21.419Z,3.92
2023-07-08T04:06:48.269Z,3.67
2023-07-08T04:09:15.354Z,3.65
2023-07-08T04:11:42.543Z,3.80
2023-07-08T04:14:10.862Z,4.30
2023-07-08T04:16:54.377Z,3.70
2023-07-08T04:19:23.730Z,3.42
2023-07-08T04:21:51.220Z,3.88
2023-07-08T04:24:18.722Z,3.85
2023-07-08T04:26:48.378Z,3.40
2023-07-08T04:29:19.301Z,3.65
2023-07-08T04:31:46.865Z,4.03
2023-07-08T04:34:16.294Z,3.40
2023-07-08T04:36:44.611Z,3.55
2023-07-08T04:39:12.040Z,3.38
2023-07-08T04:41:41.833Z,4.20
2023-07-08T04:44:11.666Z,4.30
2023-07-08T04:46:46.514Z,4.03
2023-07-08T04:49:14.611Z,3.58
2023-07-08T04:51:42.641Z,3.72
2023-07-08T04:54:10.490Z,3.60
2023-07-08T04:56:44.240Z,3.88
2023-07-08T04:59:14.314Z,3.90
2023-07-08T05:01:42.222Z,3.42
2023-07-08T05:04:13.230Z,3.97
2023-07-08T05:06:40.270Z,3.90
2023-07-08T05:09:07.199Z,3.47
2023-07-08T05:11:34.754Z,3.92
2023-07-08T05:14:03.376Z,3.63
2023-07-08T05:16:30.951Z,4.38
2023-07-08T05:18:58.002Z,3.55
2023-07-08T05:21:25.576Z,3.38
2023-07-08T05:23:52.579Z,3.80
2023-07-08T05:26:19.692Z,3.30
2023-07-08T05:28:47.022Z,3.65
2023-07-08T05:31:14.158Z,3.63
2023-07-08T05:33:41.420Z,3.00
2023-07-08T05:36:08.708Z,3.95
2023-07-08T05:38:35.761Z,3.30
2023-07-08T05:41:03.088Z,3.40
2023-07-08T05:43:30.844Z,3.30
2023-07-08T05:46:12.482Z,3.63
2023-07-08T05:48:40.947Z,3.47
2023-07-08T05:51:08.641Z,3.15
2023-07-08T05:53:35.656Z,3.35
2023-07-08T05:56:05.660Z,3.25
2023-07-08T05:58:32.886Z,3.28
2023-07-08T06:01:00.776Z,2.85
2023-07-08T06:03:28.661Z,3.60
2023-07-08T06:05:56.015Z,2.92
2023-07-08T06:08:23.677Z,2.97
2023-07-08T06:10:51.662Z,2.85
2023-07-08T06:13:18.768Z,3.08
2023-07-08T06:15:45.773Z,2.70
2023-07-08T06:18:12.890Z,3.22
2023-07-08T06:20:40.023Z,3.22
2023-07-08T06:23:07.214Z,3.38
2023-07-08T06:25:34.563Z,3.40
2023-07-08T06:28:01.776Z,3.20
2023-07-08T06:30:28.969Z,2.83
2023-07-08T06:32:56.444Z,3.75
2023-07-08T06:35:24.504Z,3.10
2023-07-08T06:37:51.488Z,3.17
2023-07-08T06:40:20.568Z,3.15
2023-07-08T06:42:48.127Z,2.70
2023-07-08T06:45:26.871Z,2.80
2023-07-08T06:47:53.921Z,2.90
2023-07-08T06:50:20.928Z,3.03
2023-07-08T06:52:47.960Z,3.30
2023-07-08T06:55:15.400Z,2.92
2023-07-08T06:57:42.438Z,3.15
2023-07-08T07:00:11.673Z,3.22
2023-07-08T07:02:39.700Z,2.78
2023-07-08T07:05:07.815Z,2.47
2023-07-08T07:07:35.625Z,3.05
2023-07-08T07:10:04.153Z,3.15
2023-07-08T07:12:31.473Z,2.97
2023-07-08T07:14:58.458Z,2.92
2023-07-08T07:17:26.853Z,3.67
2023-07-08T07:19:55.271Z,2.40
2023-07-08T07:22:22.718Z,2.55
2023-07-08T07:24:50.428Z,2.60
2023-07-08T07:27:17.701Z,3.05
2023-07-08T07:29:47.157Z,2.78
2023-07-08T07:32:16.034Z,2.63
2023-07-08T07:34:43.282Z,3.03
2023-07-08T07:37:14.781Z,3.10
2023-07-08T07:39:42.422Z,3.15
2023-07-08T07:42:11.449Z,2.88
2023-07-08T07:44:45.984Z,3.25
2023-07-08T07:47:13.562Z,3.13
2023-07-08T07:49:41.217Z,3.30
2023-07-08T07:52:08.887Z,2.92
2023-07-08T07:54:35.961Z,2.78
2023-07-08T07:57:03.225Z,3.17
2023-07-08T07:59:30.615Z,3.47
2023-07-08T08:01:57.669Z,3.40
2023-07-08T08:04:24.869Z,3.53
2023-07-08T08:06:51.953Z,2.67
2023-07-08T08:09:19.037Z,2.80
2023-07-08T08:11:46.018Z,2.65
2023-07-08T08:14:13.401Z,2.55
2023-07-08T08:16:40.563Z,2.50
2023-07-08T08:19:09.275Z,2.78
2023-07-08T08:21:36.833Z,2.47
2023-07-08T08:24:04.449Z,2.97
2023-07-08T08:26:31.624Z,2.80
2023-07-08T08:28:58.766Z,2.70
2023-07-08T08:31:26.017Z,2.30
2023-07-08T08:33:53.877Z,2.35
2023-07-08T08:36:22.047Z,3.00
2023-07-08T08:38:49.480Z,3.17
2023-07-08T08:41:22.785Z,2.50
2023-07-08T08:43:52.706Z,2.25
2023-07-08T08:46:31.761Z,2.50
2023-07-08T08:49:25.503Z,2.40
2023-07-08T08:51:53.299Z,2.38
2023-07-08T08:54:20.760Z,2.38
2023-07-08T08:57:21.579Z,2.30
2023-07-08T08:59:57.396Z,2.47
2023-07-08T09:02:38.787Z,2.35
2023-07-08T09:05:10.265Z,2.45
2023-07-08T09:08:04.833Z,2.53
2023-07-08T09:10:55.149Z,1.90
2023-07-08T09:13:39.292Z,1.88
2023-07-08T09:16:42.881Z,1.83
2023-07-08T09:19:31.745Z,2.63
2023-07-08T09:22:27.837Z,2.40
2023-07-08T09:25:13.337Z,2.28
2023-07-08T09:30:19.788Z,2.20
2023-07-08T09:32:48.476Z,2.00
2023-07-08T09:35:24.343Z,4.07
2023-07-08T09:37:52.004Z,2.13
2023-07-08T09:40:34.352Z,2.10
2023-07-08T09:43:21.414Z,1.90
2023-07-08T09:45:49.374Z,1.70
2023-07-08T09:48:25.153Z,2.50
2023-07-08T09:50:55.692Z,2.00
2023-07-08T09:53:23.033Z,2.00
2023-07-08T09:55:52.000Z,2.17
2023-07-08T09:58:31.776Z,2.50
2023-07-08T10:01:03.554Z,2.15
2023-07-08T10:03:35.460Z,2.25
2023-07-08T10:06:19.660Z,2.08
2023-07-08T10:08:47.520Z,2.47
2023-07-08T10:11:30.798Z,2.33
2023-07-08T10:14:25.632Z,2.22
2023-07-08T10:16:53.300Z,2.30
2023-07-08T10:19:22.515Z,2.22
2023-07-08T10:22:22.904Z,2.67
2023-07-08T10:25:08.013Z,2.40
2023-07-08T10:27:48.746Z,2.35
2023-07-08T10:30:30.545Z,2.17
2023-07-08T10:33:25.376Z,3.47
2023-07-08T10:36:23.534Z,2.10
2023-07-08T10:39:19.338Z,2.30
2023-07-08T10:42:01.590Z,2.70
2023-07-08T10:44:44.135Z,2.40
2023-07-08T10:47:55.558Z,2.25
2023-07-08T10:50:51.254Z,2.42
2023-07-08T10:54:02.639Z,2.42
2023-07-08T10:56:41.851Z,2.88
2023-07-08T10:59:32.860Z,2.63
2023-07-08T11:01:59.755Z,2.90
2023-07-08T11:04:38.564Z,2.67
2023-07-08T11:07:18.437Z,2.80
2023-07-08T11:09:56.062Z,2.92
2023-07-08T11:12:37.208Z,2.83
2023-07-08T11:15:26.250Z,2.95
2023-07-08T11:18:16.694Z,2.78
2023-07-08T11:20:50.395Z,3.42
2023-07-08T11:23:31.101Z,3.13
2023-07-08T11:26:18.605Z,2.80
2023-07-08T11:28:47.013Z,2.70
2023-07-08T11:31:15.502Z,3.30
2023-07-08T11:33:43.914Z,3.20
2023-07-08T11:36:11.975Z,3.25
2023-07-08T11:38:50.273Z,3.20
2023-07-08T11:41:21.009Z,3.15
2023-07-08T11:43:54.635Z,3.40
2023-07-08T11:46:29.820Z,4.13
2023-07-08T11:49:04.089Z,3.58
2023-07-08T11:51:39.307Z,3.40
2023-07-08T11:54:31.780Z,3.20
2023-07-08T11:57:05.649Z,3.10
2023-07-08T11:59:41.593Z,3.70
2023-07-08T12:02:18.613Z,3.05
2023-07-08T12:05:05.846Z,3.92
2023-07-08T12:07:44.454Z,3.45
2023-07-08T12:10:16.922Z,4.30
2023-07-08T12:12:46.356Z,3.63
2023-07-08T12:15:33.783Z,3.60
2023-07-08T12:18:17.325Z,3.85
2023-07-08T12:20:53.828Z,4.30
2023-07-08T12:23:24.549Z,3.70
2023-07-08T12:25:53.580Z,3.83
2023-07-08T12:28:22.951Z,4.18
2023-07-08T12:30:51.640Z,3.72
2023-07-08T12:33:35.116Z,3.70
2023-07-08T12:36:04.750Z,3.73
2023-07-08T12:38:35.256Z,3.88
2023-07-08T12:41:10.762Z,4.47
2023-07-08T12:43:37.811Z,4.38
2023-07-08T12:46:05.841Z,4.10
2023-07-08T12:48:37.062Z,4.15
2023-07-08T12:51:05.354Z,4.32
2023-07-08T12:53:34.945Z,4.32
2023-07-08T12:56:03.271Z,3.80
2023-07-08T12:58:35.913Z,4.20
2023-07-08T13:01:05.827Z,4.03
2023-07-08T13:03:42.534Z,3.63
2023-07-08T13:06:13.011Z,4.47
2023-07-08T13:08:40.683Z,3.95
2023-07-08T13:11:08.342Z,3.97
2023-07-08T13:13:57.494Z,3.63
2023-07-08T13:16:35.087Z,3.40
2023-07-08T13:19:02.847Z,3.50
2023-07-08T13:21:31.774Z,3.20
2023-07-08T13:23:59.776Z,3.00
2023-07-08T13:26:30.726Z,3.10
2023-07-08T13:29:05.110Z,3.17
2023-07-08T13:31:39.012Z,2.88
2023-07-08T13:34:17.234Z,3.58
2023-07-08T13:36:47.858Z,3.30
2023-07-08T13:39:26.161Z,3.50
2023-07-08T13:41:53.190Z,3.40
2023-07-08T13:44:20.484Z,3.17
2023-07-08T13:46:58.921Z,3.03
2023-07-08T13:49:41.282Z,2.75
2023-07-08T13:52:12.666Z,3.00
2023-07-08T13:54:54.839Z,3.15
2023-07-08T13:57:34.455Z,2.97
2023-07-08T14:00:01.776Z,3.40
2023-07-08T14:02:44.671Z,3.30
2023-07-08T14:05:15.097Z,3.38
2023-07-08T14:07:42.899Z,3.35
2023-07-08T14:10:14.485Z,3.22
2023-07-08T14:12:42.043Z,3.50
2023-07-08T14:15:10.914Z,3.05
2023-07-08T14:17:39.759Z,3.13
2023-07-08T14:20:16.712Z,3.30
2023-07-08T14:22:43.804Z,3.38
2023-07-08T14:25:12.688Z,3.30
2023-07-08T14:27:39.984Z,3.30
2023-07-08T14:30:11.156Z,3.03
2023-07-08T14:32:38.226Z,2.70
2023-07-08T14:35:29.514Z,3.25
2023-07-08T14:37:57.142Z,2.97
2023-07-08T14:40:26.296Z,3.13
2023-07-08T14:43:01.285Z,2.80
2023-07-08T14:45:31.604Z,3.08
2023-07-08T14:47:58.708Z,2.50
2023-07-08T14:50:26.926Z,3.17
2023-07-08T14:52:54.054Z,2.72
2023-07-08T14:55:21.100Z,3.28
2023-07-08T14:57:49.874Z,2.90
2023-07-08T15:00:20.438Z,2.63
2023-07-08T15:02:50.426Z,3.10
2023-07-08T15:05:29.388Z,3.00
2023-07-08T15:07:59.070Z,2.60
2023-07-08T15:10:31.142Z,2.78
2023-07-08T15:13:00.711Z,2.90
2023-07-08T15:15:33.946Z,2.42
2023-07-08T15:18:03.736Z,2.47
2023-07-08T15:20:33.292Z,2.45
2023-07-08T15:23:00.388Z,2.65
2023-07-08T15:25:28.023Z,2.60
2023-07-08T15:27:57.277Z,2.60
2023-07-08T15:30:30.142Z,2.33
2023-07-08T15:32:58.064Z,2.72
2023-07-08T15:35:33.669Z,2.38
2023-07-08T15:38:04.705Z,2.90
2023-07-08T15:40:34.546Z,2.78
2023-07-08T15:43:04.066Z,2.42
2023-07-08T15:45:35.539Z,2.40
2023-07-08T15:48:02.905Z,2.83
2023-07-08T15:50:30.057Z,2.60
2023-07-08T15:52:57.284Z,3.17
2023-07-08T15:55:39.610Z,3.28
2023-07-08T15:58:25.310Z,2.70
2023-07-08T16:00:52.493Z,2.40
2023-07-08T16:03:32.517Z,2.67
2023-07-08T16:06:00.478Z,2.20
2023-07-08T16:08:28.039Z,2.40
2023-07-08T16:11:02.308Z,2.05
2023-07-08T16:13:36.507Z,2.80
2023-07-08T16:16:04.194Z,2.33
2023-07-08T16:18:31.534Z,2.95
2023-07-08T16:20:58.715Z,2.75
2023-07-08T16:23:26.312Z,2.60
2023-07-08T16:25:54.620Z,2.13
2023-07-08T16:28:41.786Z,2.72
2023-07-08T16:31:22.977Z,2.28
2023-07-08T16:33:51.088Z,2.85
2023-07-08T16:36:22.520Z,2.50
2023-07-08T16:38:49.883Z,2.50
2023-07-08T16:41:20.297Z,2.45
2023-07-08T16:43:48.044Z,2.45
2023-07-08T16:46:18.817Z,2.30
2023-07-08T16:48:46.154Z,2.72
2023-07-08T16:51:16.723Z,2.22
2023-07-08T16:53:45.279Z,3.20
2023-07-08T16:56:14.155Z,2.72
2023-07-08T16:58:41.087Z,6.18
2023-07-08T17:01:28.545Z,3.47
2023-07-08T17:03:57.425Z,2.67
2023-07-08T17:06:25.422Z,2.80
2023-07-08T17:08:52.394Z,2.42
2023-07-08T17:11:19.663Z,2.92
2023-07-08T17:13:46.888Z,2.88
2023-07-08T17:16:20.701Z,2.30
2023-07-08T17:18:56.614Z,2.40
2023-07-08T17:23:50.940Z,2.40
2023-07-08T17:26:19.088Z,2.45
2023-07-08T17:28:49.387Z,2.53
2023-07-08T17:31:33.835Z,2.40
2023-07-08T17:34:30.934Z,2.85
2023-07-08T17:36:58.683Z,2.28
2023-07-08T17:39:25.846Z,1.98
2023-07-08T17:41:55.364Z,2.55
2023-07-08T17:44:22.688Z,2.15
2023-07-08T17:46:50.180Z,2.53
2023-07-08T17:49:17.351Z,2.30
2023-07-08T17:51:44.335Z,2.75
2023-07-08T17:54:16.157Z,2.53
2023-07-08T17:56:47.455Z,2.10
2023-07-08T17:59:19.170Z,2.20
2023-07-08T18:01:46.972Z,2.45
2023-07-08T18:04:14.337Z,2.60
2023-07-08T18:06:41.527Z,2.22
2023-07-08T18:09:08.789Z,2.15
2023-07-08T18:11:44.957Z,2.60
2023-07-08T18:14:13.139Z,2.55
2023-07-08T18:16:40.356Z,2.45
2023-07-08T18:19:09.383Z,2.17
2023-07-08T18:21:36.440Z,2.50
2023-07-08T18:24:03.710Z,2.20
2023-07-08T18:26:32.539Z,2.50
2023-07-08T18:29:01.213Z,2.80
2023-07-08T18:31:31.983Z,2.75
2023-07-08T18:34:06.314Z,2.22
2023-07-08T18:36:35.499Z,2.53
2023-07-08T18:39:02.714Z,2.65
2023-07-08T18:41:39.672Z,2.58
2023-07-08T18:44:11.235Z,2.65
2023-07-08T18:46:38.315Z,2.88
2023-07-08T18:49:05.813Z,3.00
2023-07-08T18:51:45.244Z,3.40
2023-07-08T18:54:17.980Z,2.70
2023-07-08T18:56:46.650Z,2.97
2023-07-08T18:59:14.122Z,3.08
2023-07-08T19:01:47.124Z,3.08
2023-07-08T19:04:22.488Z,2.67
2023-07-08T19:06:50.198Z,2.30
2023-07-08T19:09:17.262Z,2.95
2023-07-08T19:11:44.385Z,2.17
2023-07-08T19:14:17.312Z,2.75
2023-07-08T19:16:45.621Z,2.30
2023-07-08T19:19:14.349Z,2.03
2023-07-08T19:21:41.922Z,2.25
2023-07-08T19:24:21.356Z,1.95
2023-07-08T19:26:55.847Z,2.50
2023-07-08T19:29:22.900Z,2.20
2023-07-08T19:31:50.136Z,2.00
2023-07-08T19:34:17.953Z,2.08
2023-07-08T19:36:45.011Z,2.40
2023-07-08T19:39:12.134Z,2.20
2023-07-08T19:41:39.221Z,2.97
2023-07-08T19:44:15.967Z,2.72
2023-07-08T19:46:43.112Z,2.35
2023-07-08T19:49:11.131Z,2.45
2023-07-08T19:51:38.205Z,2.40
2023-07-08T19:54:05.382Z,2.13
2023-07-08T19:56:32.546Z,2.38
2023-07-08T19:59:01.783Z,2.25
2023-07-08T20:01:29.006Z,2.47
2023-07-08T20:03:56.155Z,2.38
2023-07-08T20:06:27.534Z,2.38
2023-07-08T20:08:59.156Z,2.40
2023-07-08T20:11:26.258Z,2.17
2023-07-08T20:13:53.575Z,2.40
2023-07-08T20:16:26.249Z,2.63
2023-07-08T20:18:53.857Z,2.55
2023-07-08T20:21:20.989Z,2.53
2023-07-08T20:23:47.973Z,2.95
2023-07-08T20:26:28.668Z,2.58
2023-07-08T20:28:56.089Z,3.03
2023-07-08T20:31:23.834Z,2.92
2023-07-08T20:33:51.041Z,2.65
2023-07-08T20:36:21.127Z,3.25
2023-07-08T20:38:48.568Z,3.42
2023-07-08T20:41:16.360Z,2.97
2023-07-08T20:43:43.306Z,2.80
2023-07-08T20:46:20.659Z,2.40
2023-07-08T20:48:48.205Z,2.30
2023-07-08T20:51:16.267Z,2.25
2023-07-08T20:53:43.611Z,2.40
2023-07-08T20:56:27.456Z,2.20
2023-07-08T20:58:54.868Z,2.20
2023-07-08T21:01:22.742Z,2.40
2023-07-08T21:03:50.697Z,2.30
2023-07-08T21:06:32.820Z,2.33
2023-07-08T21:09:00.006Z,2.00
2023-07-08T21:11:27.361Z,1.85
2023-07-08T21:13:54.979Z,2.22
2023-07-08T21:16:27.926Z,2.28
2023-07-08T21:18:58.007Z,2.22
2023-07-08T21:21:25.868Z,2.75
2023-07-08T21:23:53.817Z,2.40
2023-07-08T21:26:29.353Z,2.40
2023-07-08T21:29:02.001Z,2.40
2023-07-08T21:31:30.587Z,2.25
2023-07-08T21:33:57.711Z,2.28
2023-07-08T21:36:25.582Z,2.70
2023-07-08T21:38:54.685Z,2.15
2023-07-08T21:41:21.879Z,2.72
2023-07-08T21:43:48.970Z,2.28
2023-07-08T21:46:15.923Z,2.35
2023-07-08T21:48:43.212Z,2.55
2023-07-08T21:51:42.019Z,2.42
2023-07-08T21:54:12.185Z,2.28
2023-07-08T21:56:39.669Z,2.90
2023-07-08T21:59:20.792Z,2.33
2023-07-08T22:01:48.054Z,2.15
2023-07-08T22:04:15.734Z,2.58
2023-07-08T22:06:43.248Z,2.45
2023-07-08T22:09:10.192Z,2.25
2023-07-08T22:11:39.120Z,2.28
2023-07-08T22:14:08.518Z,2.22
2023-07-08T22:16:37.541Z,2.47
2023-07-08T22:19:05.846Z,2.58
2023-07-08T22:21:40.147Z,2.40
2023-07-08T22:24:10.951Z,2.70
2023-07-08T22:26:42.327Z,2.72
2023-07-08T22:29:10.183Z,2.92
2023-07-08T22:31:40.748Z,2.50
2023-07-08T22:34:25.901Z,2.60
2023-07-08T22:36:52.775Z,2.45
2023-07-08T22:39:20.487Z,2.40
2023-07-08T22:41:51.373Z,2.85
2023-07-08T22:44:18.495Z,2.13
2023-07-08T22:46:46.983Z,2.50
2023-07-08T22:49:24.441Z,2.55
2023-07-08T22:51:57.063Z,2.30
2023-07-08T22:54:24.561Z,2.90
2023-07-08T22:56:51.613Z,2.55
2023-07-08T22:59:19.194Z,2.65
2023-07-08T23:01:46.256Z,2.90
2023-07-08T23:04:13.391Z,2.72
2023-07-08T23:06:43.596Z,2.60
2023-07-08T23:09:15.213Z,2.70
2023-07-08T23:11:43.969Z,2.60
2023-07-08T23:14:11.939Z,2.65
2023-07-08T23:16:39.460Z,2.80
2023-07-08T23:19:08.727Z,2.28
2023-07-08T23:21:35.909Z,2.65
2023-07-08T23:24:02.981Z,2.50
2023-07-08T23:26:40.390Z,2.42
2023-07-08T23:29:15.850Z,2.65
2023-07-08T23:31:42.915Z,2.50
2023-07-08T23:34:10.849Z,2.53
2023-07-08T23:36:41.845Z,2.58
2023-07-08T23:39:17.775Z,2.70
2023-07-08T23:41:45.251Z,2.15
2023-07-08T23:44:17.760Z,2.50
2023-07-08T23:46:49.225Z,2.30
2023-07-08T23:49:33.015Z,2.47
2023-07-08T23:52:01.720Z,2.40
2023-07-08T23:54:33.731Z,2.97
2023-07-08T23:57:04.634Z,2.78
2023-07-08T23:59:48.639Z,2.50
